Time;durP1;ratioP1;P1;durP2;ratioP2;P2;SDS_P1;SDS_P2;PMS_P1;PMS_P2;Temp;Humidity;BMP_temperature;BMP_pressure;BME280_temperature;BME280_humidity;BME280_pressure;Samples;Min_cycle;Max_cycle;Signal;HPM_P1;HPM_P2
2021/04/26 00:02:23;;;;;;;4.83;2.47;;;;;;;;;;5074669;28;20477;-77
2021/04/26 00:04:49;;;;;;;2.70;2.50;;;;;;;;;;5074512;28;20692;-77
2021/04/26 00:10:19;;;;;;;5.53;2.57;;;;;;;;;;5074424;28;20927;-76
2021/04/26 00:12:45;;;;;;;4.40;2.50;;;;;;;;;;5073145;28;20441;-76
2021/04/26 00:15:15;;;;;;;2.90;2.00;;;;;;;;;;5074244;28;20421;-76
2021/04/26 00:17:41;;;;;;;4.73;2.43;;;;;;;;;;5074268;28;20518;-77
2021/04/26 00:20:11;;;;;;;3.07;2.07;;;;;;;;;;5074081;28;20494;-77
2021/04/26 00:25:40;;;;;;;6.83;2.50;;;;;;;;;;5073969;28;20416;-76
2021/04/26 00:28:07;;;;;;;5.50;2.83;;;;;;;;;;5073567;28;20869;-78
2021/04/26 00:30:33;;;;;;;3.23;2.50;;;;;;;;;;5073823;28;20414;-77
2021/04/26 00:32:59;;;;;;;3.40;2.47;;;;;;;;;;5072498;28;20509;-77
2021/04/26 00:35:25;;;;;;;3.77;2.63;;;;;;;;;;5073758;28;20892;-78
2021/04/26 00:37:52;;;;;;;4.03;2.80;;;;;;;;;;5073827;28;20432;-76
2021/04/26 00:40:19;;;;;;;4.33;2.40;;;;;;;;;;5073362;28;20776;-77
2021/04/26 00:42:45;;;;;;;5.37;2.23;;;;;;;;;;5073670;28;20858;-78
2021/04/26 00:45:14;;;;;;;2.93;2.60;;;;;;;;;;5073491;28;20453;-76
2021/04/26 00:47:40;;;;;;;6.35;2.60;;;;;;;;;;5073470;28;20422;-77
2021/04/26 00:50:08;;;;;;;7.97;3.83;;;;;;;;;;5073498;28;20247;-77
2021/04/26 00:55:38;;;;;;;3.60;3.03;;;;;;;;;;5073462;28;20444;-77
2021/04/26 00:58:04;;;;;;;6.30;3.03;;;;;;;;;;5072952;28;20406;-78
2021/04/26 01:00:30;;;;;;;3.60;3.00;;;;;;;;;;5073324;28;20172;-77
2021/04/26 01:02:57;;;;;;;8.00;2.92;;;;;;;;;;5073441;28;20742;-77
2021/04/26 01:05:24;;;;;;;3.38;2.65;;;;;;;;;;5073139;28;20164;-77
2021/04/26 01:10:53;;;;;;;3.47;2.92;;;;;;;;;;5072867;28;20491;-77
2021/04/26 01:13:38;;;;;;;2.90;2.65;;;;;;;;;;5073186;28;20174;-77
2021/04/26 01:16:13;;;;;;;4.28;3.13;;;;;;;;;;5073200;28;20179;-77
2021/04/26 01:18:44;;;;;;;2.93;2.50;;;;;;;;;;5072941;28;20197;-77
2021/04/26 01:21:16;;;;;;;6.53;3.33;;;;;;;;;;5072914;28;20457;-77
2021/04/26 01:24:08;;;;;;;3.63;2.63;;;;;;;;;;5072769;28;20170;-76
2021/04/26 01:26:37;;;;;;;2.90;2.60;;;;;;;;;;5071581;28;20931;-77
2021/04/26 01:29:14;;;;;;;5.25;2.38;;;;;;;;;;5073077;28;20882;-77
2021/04/26 01:31:56;;;;;;;5.03;3.08;;;;;;;;;;5079276;28;20175;-77
2021/04/26 01:34:24;;;;;;;4.55;3.10;;;;;;;;;;5085346;28;20578;-77
2021/04/26 01:36:50;;;;;;;3.50;3.20;;;;;;;;;;5073333;28;20164;-78
2021/04/26 01:39:17;;;;;;;4.05;2.53;;;;;;;;;;5073164;28;20406;-78
2021/04/26 01:41:45;;;;;;;4.72;3.10;;;;;;;;;;5072639;28;20721;-78
2021/04/26 01:44:11;;;;;;;5.78;2.85;;;;;;;;;;5072965;28;20168;-77
2021/04/26 01:46:37;;;;;;;6.63;3.53;;;;;;;;;;5073096;28;20172;-77
2021/04/26 01:49:04;;;;;;;6.40;4.23;;;;;;;;;;5072929;28;20405;-77
2021/04/26 01:51:30;;;;;;;9.10;3.20;;;;;;;;;;5072507;28;20414;-77
2021/04/26 01:53:56;;;;;;;7.20;4.73;;;;;;;;;;5072458;28;20179;-77
2021/04/26 01:56:23;;;;;;;4.28;3.40;;;;;;;;;;5072875;28;20409;-78
2021/04/26 01:58:50;;;;;;;5.60;3.20;;;;;;;;;;5072147;28;20190;-77
2021/04/26 02:01:18;;;;;;;6.97;4.22;;;;;;;;;;5072713;28;20202;-78
2021/04/26 02:03:52;;;;;;;5.85;3.25;;;;;;;;;;5072949;28;20175;-77
2021/04/26 02:06:19;;;;;;;5.15;4.25;;;;;;;;;;5072732;28;20206;-77
2021/04/26 02:08:45;;;;;;;4.63;3.22;;;;;;;;;;5072765;28;20526;-78
2021/04/26 02:11:14;;;;;;;4.80;4.30;;;;;;;;;;5072739;28;20701;-78
2021/04/26 02:13:41;;;;;;;6.00;4.07;;;;;;;;;;5072843;28;20409;-77
2021/04/26 02:16:07;;;;;;;3.92;3.45;;;;;;;;;;5072714;28;20198;-77
2021/04/26 02:18:33;;;;;;;5.75;3.00;;;;;;;;;;5072573;28;20167;-76
2021/04/26 02:21:00;;;;;;;5.50;3.92;;;;;;;;;;5071251;28;20215;-78
2021/04/26 02:26:29;;;;;;;5.45;4.25;;;;;;;;;;5072826;28;20252;-78
2021/04/26 02:28:55;;;;;;;7.17;4.53;;;;;;;;;;5072129;28;20175;-78
2021/04/26 02:31:22;;;;;;;3.83;3.50;;;;;;;;;;5072542;28;20414;-77
2021/04/26 02:33:59;;;;;;;4.35;3.83;;;;;;;;;;5071194;28;20544;-78
2021/04/26 02:36:28;;;;;;;6.47;4.55;;;;;;;;;;5072580;28;20171;-78
2021/04/26 02:38:54;;;;;;;6.60;3.95;;;;;;;;;;5072726;28;20277;-78
2021/04/26 02:41:22;;;;;;;6.78;4.28;;;;;;;;;;5072360;28;20503;-78
2021/04/26 02:43:53;;;;;;;4.05;3.47;;;;;;;;;;5071099;28;20183;-78
2021/04/26 02:46:22;;;;;;;6.32;4.18;;;;;;;;;;5072339;28;20173;-78
2021/04/26 02:48:48;;;;;;;5.95;3.97;;;;;;;;;;5072259;28;20258;-76
2021/04/26 02:51:15;;;;;;;5.57;4.38;;;;;;;;;;5072198;28;20180;-77
2021/04/26 02:56:45;;;;;;;9.10;4.18;;;;;;;;;;5076363;28;20177;-78
2021/04/26 02:59:16;;;;;;;3.75;3.45;;;;;;;;;;5075314;28;20194;-77
2021/04/26 03:01:42;;;;;;;6.05;4.18;;;;;;;;;;5075895;28;20206;-77
2021/04/26 03:04:08;;;;;;;7.68;4.95;;;;;;;;;;5075819;28;20156;-78
2021/04/26 03:06:35;;;;;;;6.03;4.65;;;;;;;;;;5075841;28;20178;-77
2021/04/26 03:09:01;;;;;;;6.30;4.05;;;;;;;;;;5076036;28;20178;-77
2021/04/26 03:11:29;;;;;;;4.47;3.90;;;;;;;;;;5075575;28;20222;-78
2021/04/26 03:13:56;;;;;;;6.03;4.35;;;;;;;;;;5075547;28;20178;-78
2021/04/26 03:16:22;;;;;;;5.22;4.28;;;;;;;;;;5075951;28;20171;-78
2021/04/26 03:18:48;;;;;;;4.90;4.22;;;;;;;;;;5075832;28;20166;-79
2021/04/26 03:21:14;;;;;;;5.82;4.97;;;;;;;;;;5075704;28;20210;-78
2021/04/26 03:26:44;;;;;;;5.57;5.07;;;;;;;;;;5087686;28;20690;-76
2021/04/26 03:29:11;;;;;;;6.13;4.75;;;;;;;;;;5076091;28;20277;-76
2021/04/26 03:31:37;;;;;;;5.55;5.05;;;;;;;;;;5075952;28;20177;-77
2021/04/26 03:34:03;;;;;;;8.07;5.33;;;;;;;;;;5075762;28;20530;-77
2021/04/26 03:36:30;;;;;;;6.70;5.13;;;;;;;;;;5074291;28;20965;-78
2021/04/26 03:41:59;;;;;;;5.60;5.05;;;;;;;;;;5075514;28;20305;-77
2021/04/26 03:44:25;;;;;;;10.57;6.45;;;;;;;;;;5075455;28;20167;-77
2021/04/26 03:46:59;;;;;;;5.75;5.07;;;;;;;;;;5075239;28;20170;-77
2021/04/26 03:49:26;;;;;;;7.57;5.88;;;;;;;;;;5073992;28;20208;-78
2021/04/26 03:51:52;;;;;;;7.45;4.97;;;;;;;;;;5075083;28;20169;-77
2021/04/26 03:54:18;;;;;;;8.20;5.10;;;;;;;;;;5074336;28;20194;-77
2021/04/26 03:56:45;;;;;;;6.45;4.93;;;;;;;;;;5075038;28;20170;-78
2021/04/26 03:59:11;;;;;;;6.07;5.43;;;;;;;;;;5074660;28;20176;-77
2021/04/26 04:01:37;;;;;;;5.75;4.85;;;;;;;;;;5075075;28;20293;-76
2021/04/26 04:04:06;;;;;;;6.05;5.28;;;;;;;;;;5074748;28;20169;-77
2021/04/26 04:06:32;;;;;;;7.30;5.10;;;;;;;;;;5074936;28;20181;-77
2021/04/26 04:12:01;;;;;;;6.60;5.32;;;;;;;;;;5074626;28;20232;-78
2021/04/26 04:14:27;;;;;;;10.80;7.00;;;;;;;;;;5074172;28;20492;-77
2021/04/26 04:16:53;;;;;;;5.23;4.73;;;;;;;;;;5074555;28;20443;-77
2021/04/26 04:19:19;;;;;;;5.60;4.83;;;;;;;;;;5074650;28;20948;-77
2021/04/26 04:21:45;;;;;;;8.10;5.43;;;;;;;;;;5074313;28;20479;-78
2021/04/26 04:27:15;;;;;;;8.85;5.85;;;;;;;;;;5074382;28;20422;-76
2021/04/26 04:29:41;;;;;;;7.10;5.57;;;;;;;;;;5074055;28;20182;-77
2021/04/26 04:32:07;;;;;;;5.13;4.57;;;;;;;;;;5074557;28;20162;-77
2021/04/26 04:34:34;;;;;;;5.78;4.57;;;;;;;;;;5073941;28;20272;-76
2021/04/26 04:37:00;;;;;;;7.70;5.40;;;;;;;;;;5073642;28;20302;-76
2021/04/26 04:42:29;;;;;;;9.77;5.75;;;;;;;;;;5074310;28;20317;-78
2021/04/26 04:44:55;;;;;;;7.28;5.35;;;;;;;;;;5073055;28;20243;-77
2021/04/26 04:47:21;;;;;;;9.95;5.55;;;;;;;;;;5074152;28;20544;-78
2021/04/26 04:49:47;;;;;;;6.40;4.97;;;;;;;;;;5074200;28;20281;-77
2021/04/26 04:52:13;;;;;;;7.67;4.70;;;;;;;;;;5072829;28;20493;-78
2021/04/26 04:57:43;;;;;;;8.50;5.07;;;;;;;;;;5074179;28;20300;-77
2021/04/26 05:00:09;;;;;;;7.75;4.30;;;;;;;;;;5073484;28;20166;-78
2021/04/26 05:02:35;;;;;;;5.57;4.55;;;;;;;;;;5073612;28;20207;-77
2021/04/26 05:05:01;;;;;;;6.43;4.40;;;;;;;;;;5073805;28;20253;-78
2021/04/26 05:07:27;;;;;;;6.63;5.45;;;;;;;;;;5072170;28;20267;-78
2021/04/26 05:09:54;;;;;;;6.85;4.93;;;;;;;;;;5073688;28;20171;-77
2021/04/26 05:12:20;;;;;;;6.75;3.88;;;;;;;;;;5073597;28;20307;-77
2021/04/26 05:14:48;;;;;;;6.38;4.03;;;;;;;;;;5076970;28;20254;-78
2021/04/26 05:17:14;;;;;;;6.38;4.18;;;;;;;;;;5083972;28;20575;-76
2021/04/26 05:19:40;;;;;;;10.55;5.18;;;;;;;;;;5073995;28;20178;-78
2021/04/26 05:22:06;;;;;;;7.03;4.77;;;;;;;;;;5073315;28;20203;-78
2021/04/26 05:27:37;;;;;;;6.32;4.05;;;;;;;;;;5073610;28;20170;-77
2021/04/26 05:30:06;;;;;;;6.20;4.10;;;;;;;;;;5072712;28;20251;-76
2021/04/26 05:32:33;;;;;;;6.32;4.50;;;;;;;;;;5073619;28;20864;-78
2021/04/26 05:34:59;;;;;;;4.93;3.67;;;;;;;;;;5073067;28;20174;-78
2021/04/26 05:37:25;;;;;;;5.03;4.40;;;;;;;;;;5072939;28;20453;-77
2021/04/26 05:42:54;;;;;;;4.83;4.20;;;;;;;;;;5073115;28;20527;-77
2021/04/26 05:45:20;;;;;;;7.13;4.27;;;;;;;;;;5072913;28;20425;-77
2021/04/26 05:47:46;;;;;;;5.00;4.20;;;;;;;;;;5073064;28;20436;-78
2021/04/26 05:50:13;;;;;;;4.63;4.00;;;;;;;;;;5072657;28;20422;-78
2021/04/26 05:52:39;;;;;;;8.63;4.30;;;;;;;;;;5072607;28;20426;-76
2021/04/26 05:58:08;;;;;;;18.70;4.23;;;;;;;;;;5071597;28;20875;-77
2021/04/26 06:00:34;;;;;;;11.50;4.00;;;;;;;;;;5072261;28;20431;-77
2021/04/26 06:03:00;;;;;;;4.53;3.83;;;;;;;;;;5072300;28;20806;-77
2021/04/26 06:05:26;;;;;;;3.63;3.33;;;;;;;;;;5072207;28;20398;-76
2021/04/26 06:07:52;;;;;;;8.20;4.07;;;;;;;;;;5071842;28;20596;-76
2021/04/26 06:13:22;;;;;;;11.07;4.60;;;;;;;;;;5072444;28;20463;-77
2021/04/26 06:15:49;;;;;;;8.00;4.40;;;;;;;;;;5072506;28;20471;-78
2021/04/26 06:18:16;;;;;;;5.27;4.30;;;;;;;;;;5072520;28;20410;-77
2021/04/26 06:20:43;;;;;;;6.73;4.27;;;;;;;;;;5072517;28;20457;-78
2021/04/26 06:23:09;;;;;;;8.10;4.83;;;;;;;;;;5072565;28;20418;-77
2021/04/26 06:28:38;;;;;;;5.03;4.20;;;;;;;;;;5076388;28;20428;-75
2021/04/26 06:31:04;;;;;;;7.23;5.27;;;;;;;;;;5077078;28;20413;-75
2021/04/26 06:33:30;;;;;;;4.27;3.97;;;;;;;;;;5074884;28;20904;-78
2021/04/26 06:35:56;;;;;;;5.83;4.33;;;;;;;;;;5075334;28;20422;-77
2021/04/26 06:38:23;;;;;;;5.77;3.90;;;;;;;;;;5075701;28;20836;-77
2021/04/26 06:43:52;;;;;;;10.20;5.10;;;;;;;;;;5075261;28;20467;-76
2021/04/26 06:46:18;;;;;;;4.57;4.17;;;;;;;;;;5075366;28;20421;-77
2021/04/26 06:48:44;;;;;;;4.90;4.40;;;;;;;;;;5075218;28;20410;-76
2021/04/26 06:51:10;;;;;;;15.60;4.50;;;;;;;;;;5075581;28;20604;-77
2021/04/26 06:53:36;;;;;;;7.10;5.07;;;;;;;;;;5075663;28;20414;-76
2021/04/26 06:59:06;;;;;;;7.63;4.67;;;;;;;;;;5074102;28;20480;-78
2021/04/26 07:01:32;;;;;;;5.97;5.37;;;;;;;;;;5075019;28;20819;-78
2021/04/26 07:03:58;;;;;;;5.80;5.20;;;;;;;;;;5074976;28;20428;-78
2021/04/26 07:06:24;;;;;;;5.93;4.47;;;;;;;;;;5075250;28;20437;-77
2021/04/26 07:08:50;;;;;;;5.77;5.10;;;;;;;;;;5074699;28;20471;-77
2021/04/26 07:14:20;;;;;;;5.10;4.57;;;;;;;;;;5075258;28;20404;-78
2021/04/26 07:16:47;;;;;;;6.03;4.57;;;;;;;;;;5074980;28;20413;-78
2021/04/26 07:19:13;;;;;;;5.10;4.60;;;;;;;;;;5074796;28;20876;-78
2021/04/26 07:21:39;;;;;;;6.30;5.70;;;;;;;;;;5074722;28;20473;-78
2021/04/26 07:24:05;;;;;;;5.43;4.90;;;;;;;;;;5075112;28;20758;-78
2021/04/26 07:26:31;;;;;;;6.23;4.70;;;;;;;;;;5075550;28;20722;-79
2021/04/26 07:28:57;;;;;;;10.40;5.33;;;;;;;;;;5073250;28;20542;-78
2021/04/26 07:31:23;;;;;;;5.70;5.03;;;;;;;;;;5075033;28;20422;-77
2021/04/26 07:33:49;;;;;;;5.60;4.67;;;;;;;;;;5073430;28;20707;-77
2021/04/26 07:36:15;;;;;;;12.97;5.67;;;;;;;;;;5073540;28;20778;-77
2021/04/26 07:38:41;;;;;;;5.23;4.43;;;;;;;;;;5074071;28;20483;-77
2021/04/26 07:44:11;;;;;;;6.30;4.87;;;;;;;;;;5074423;28;20413;-78
2021/04/26 07:46:37;;;;;;;5.80;4.57;;;;;;;;;;5074327;28;20425;-79
2021/04/26 07:49:03;;;;;;;5.53;5.03;;;;;;;;;;5074448;28;20930;-78
2021/04/26 07:51:29;;;;;;;8.30;5.67;;;;;;;;;;5074583;28;20761;-78
2021/04/26 07:53:55;;;;;;;6.50;5.13;;;;;;;;;;5074289;28;20764;-77
2021/04/26 07:59:24;;;;;;;4.57;4.10;;;;;;;;;;5073840;28;20418;-76
2021/04/26 08:01:50;;;;;;;7.17;4.83;;;;;;;;;;5072066;28;20457;-77
2021/04/26 08:04:16;;;;;;;5.47;4.97;;;;;;;;;;5073200;28;20422;-76
2021/04/26 08:06:42;;;;;;;6.73;4.63;;;;;;;;;;5072867;28;20410;-77
2021/04/26 08:09:09;;;;;;;5.40;4.90;;;;;;;;;;5072836;28;20509;-78
2021/04/26 08:14:38;;;;;;;7.43;5.20;;;;;;;;;;5072822;28;20421;-78
2021/04/26 08:17:04;;;;;;;6.20;4.83;;;;;;;;;;5072858;28;20448;-77
2021/04/26 08:19:30;;;;;;;5.43;4.67;;;;;;;;;;5072617;28;20433;-77
2021/04/26 08:21:56;;;;;;;6.63;4.40;;;;;;;;;;5072523;28;20465;-77
2021/04/26 08:24:22;;;;;;;5.30;4.80;;;;;;;;;;5072673;28;20406;-77
2021/04/26 08:29:52;;;;;;;7.27;5.13;;;;;;;;;;5073456;28;20421;-77
2021/04/26 08:32:18;;;;;;;9.50;5.63;;;;;;;;;;5078550;28;20414;-77
2021/04/26 08:34:44;;;;;;;5.50;4.97;;;;;;;;;;5072729;28;20505;-76
2021/04/26 08:37:10;;;;;;;5.33;4.83;;;;;;;;;;5073010;28;20412;-78
2021/04/26 08:39:36;;;;;;;8.07;4.73;;;;;;;;;;5072996;28;20939;-78
2021/04/26 08:45:07;;;;;;;4.97;4.40;;;;;;;;;;5073109;28;20412;-77
2021/04/26 08:47:33;;;;;;;4.93;4.53;;;;;;;;;;5072816;28;20402;-76
2021/04/26 08:50:01;;;;;;;5.60;4.90;;;;;;;;;;5073111;28;20418;-77
2021/04/26 08:52:27;;;;;;;7.30;5.43;;;;;;;;;;5070575;28;20489;-78
2021/04/26 08:54:54;;;;;;;6.90;5.27;;;;;;;;;;5073625;28;20426;-80
2021/04/26 09:00:24;;;;;;;6.00;5.40;;;;;;;;;;5072897;28;20606;-81
2021/04/26 09:02:52;;;;;;;5.37;4.27;;;;;;;;;;5072729;28;20496;-79
2021/04/26 09:05:26;;;;;;;6.20;5.53;;;;;;;;;;5072906;28;20870;-78
2021/04/26 09:07:53;;;;;;;8.13;5.57;;;;;;;;;;5072435;28;20536;-75
2021/04/26 09:16:29;;;;;;;7.47;4.70;;;;;;;;;;5072383;28;20580;-74
2021/04/26 09:18:58;;;;;;;8.30;5.37;;;;;;;;;;5072683;28;20406;-76
2021/04/26 09:21:43;;;;;;;8.93;5.40;;;;;;;;;;5072124;28;20490;-73
2021/04/26 09:24:18;;;;;;;6.53;5.30;;;;;;;;;;5072234;28;20937;-72
2021/04/26 09:26:49;;;;;;;5.93;5.03;;;;;;;;;;5072138;28;20422;-72
2021/04/26 09:29:23;;;;;;;7.07;5.53;;;;;;;;;;5070502;28;20417;-73
2021/04/26 09:32:03;;;;;;;6.90;5.80;;;;;;;;;;5072179;28;20477;-72
2021/04/26 09:34:31;;;;;;;4.77;4.27;;;;;;;;;;5071653;28;20860;-72
2021/04/26 09:37:04;;;;;;;5.63;5.07;;;;;;;;;;5071563;28;20517;-72
2021/04/26 09:39:30;;;;;;;6.60;5.23;;;;;;;;;;5072088;28;20446;-73
2021/04/26 09:41:57;;;;;;;5.77;4.90;;;;;;;;;;5071488;28;20491;-71
2021/04/26 09:44:23;;;;;;;5.27;4.77;;;;;;;;;;5071572;28;20498;-72
2021/04/26 09:46:51;;;;;;;6.10;4.57;;;;;;;;;;5071639;28;20411;-74
2021/04/26 09:49:18;;;;;;;6.57;4.83;;;;;;;;;;5071610;28;20946;-76
2021/04/26 09:51:46;;;;;;;7.30;5.60;;;;;;;;;;5071424;28;20464;-74
2021/04/26 09:54:12;;;;;;;7.40;5.37;;;;;;;;;;5071501;28;20410;-70
2021/04/26 09:56:40;;;;;;;6.23;5.60;;;;;;;;;;5071701;28;20414;-73
2021/04/26 09:59:06;;;;;;;6.83;5.10;;;;;;;;;;5071461;28;20855;-73
2021/04/26 10:01:32;;;;;;;5.53;4.37;;;;;;;;;;5071581;28;20472;-77
2021/04/26 10:03:59;;;;;;;7.60;5.13;;;;;;;;;;5071143;28;20458;-72
2021/04/26 10:06:26;;;;;;;7.53;5.40;;;;;;;;;;5071562;28;20406;-79
2021/04/26 10:08:54;;;;;;;10.77;6.13;;;;;;;;;;5071443;28;20406;-74
2021/04/26 10:11:20;;;;;;;8.70;6.20;;;;;;;;;;5071279;28;20469;-74
2021/04/26 10:13:48;;;;;;;6.43;5.30;;;;;;;;;;5070851;28;20969;-72
2021/04/26 10:16:20;;;;;;;6.10;5.03;;;;;;;;;;5071239;28;20414;-73
2021/04/26 10:18:46;;;;;;;6.80;5.30;;;;;;;;;;5070271;28;20723;-75
2021/04/26 10:21:18;;;;;;;7.50;5.87;;;;;;;;;;5071366;28;20499;-77
2021/04/26 10:23:45;;;;;;;6.63;6.03;;;;;;;;;;5069684;28;20957;-75
2021/04/26 10:26:32;;;;;;;4.73;4.27;;;;;;;;;;5070979;28;20426;-73
2021/04/26 10:29:12;;;;;;;8.07;5.50;;;;;;;;;;5064197;28;20536;-73
2021/04/26 10:31:57;;;;;;;5.30;4.80;;;;;;;;;;5071261;28;20505;-78
2021/04/26 10:34:23;;;;;;;8.07;4.73;;;;;;;;;;5071215;28;20414;-70
2021/04/26 10:36:53;;;;;;;8.80;4.73;;;;;;;;;;5071234;28;20418;-76
2021/04/26 10:39:20;;;;;;;6.40;5.23;;;;;;;;;;5071180;28;20414;-70
2021/04/26 10:41:47;;;;;;;7.40;5.60;;;;;;;;;;5071021;28;20805;-73
2021/04/26 10:44:35;;;;;;;6.70;4.93;;;;;;;;;;5070616;28;20422;-71
2021/04/26 10:47:23;;;;;;;7.47;5.17;;;;;;;;;;5070964;28;20426;-72
2021/04/26 10:50:05;;;;;;;7.40;5.27;;;;;;;;;;5072019;28;20410;-75
2021/04/26 10:52:33;;;;;;;8.10;6.00;;;;;;;;;;5076195;28;20406;-74
2021/04/26 10:55:03;;;;;;;6.00;5.23;;;;;;;;;;5071162;28;20762;-76
2021/04/26 10:57:39;;;;;;;7.30;4.90;;;;;;;;;;5070179;28;20475;-73
2021/04/26 11:00:24;;;;;;;6.47;4.80;;;;;;;;;;5070485;28;20455;-74
2021/04/26 11:02:51;;;;;;;8.20;5.20;;;;;;;;;;5069964;28;20512;-76
2021/04/26 11:05:22;;;;;;;9.93;4.73;;;;;;;;;;5069734;28;20452;-79
2021/04/26 11:08:00;;;;;;;5.40;4.90;;;;;;;;;;5070066;28;20422;-77
2021/04/26 11:10:34;;;;;;;7.07;4.63;;;;;;;;;;5070040;28;20525;-71
2021/04/26 11:13:02;;;;;;;8.90;4.70;;;;;;;;;;5070156;28;20466;-79
2021/04/26 11:15:28;;;;;;;5.47;5.07;;;;;;;;;;5072596;28;20501;-76
2021/04/26 11:17:54;;;;;;;5.67;5.10;;;;;;;;;;5074020;28;20938;-78
2021/04/26 11:20:23;;;;;;;5.07;4.57;;;;;;;;;;5074090;28;20501;-70
2021/04/26 11:22:49;;;;;;;7.73;4.90;;;;;;;;;;5073166;28;20512;-71
2021/04/26 11:25:34;;;;;;;8.63;4.70;;;;;;;;;;5073980;28;20761;-72
2021/04/26 11:28:01;;;;;;;4.67;3.97;;;;;;;;;;5074204;28;20475;-76
2021/04/26 11:30:29;;;;;;;6.07;5.27;;;;;;;;;;5073971;28;20881;-74
2021/04/26 11:33:00;;;;;;;5.80;4.20;;;;;;;;;;5073068;28;20414;-71
2021/04/26 11:35:26;;;;;;;5.30;4.80;;;;;;;;;;5072160;28;20418;-72
2021/04/26 11:37:53;;;;;;;5.07;3.90;;;;;;;;;;5072166;28;20821;-72
2021/04/26 11:40:20;;;;;;;7.10;4.07;;;;;;;;;;5073865;28;20435;-76
2021/04/26 11:42:47;;;;;;;4.60;4.20;;;;;;;;;;5073594;28;20463;-76
2021/04/26 11:45:14;;;;;;;9.00;4.30;;;;;;;;;;5073815;28;20418;-73
2021/04/26 11:47:40;;;;;;;5.30;4.33;;;;;;;;;;5072011;28;20430;-74
2021/04/26 11:50:07;;;;;;;5.23;4.53;;;;;;;;;;5073756;28;20489;-76
2021/04/26 11:52:35;;;;;;;7.67;4.00;;;;;;;;;;5073889;28;20414;-72
2021/04/26 11:55:04;;;;;;;5.00;4.50;;;;;;;;;;5074034;28;20406;-76
2021/04/26 11:57:40;;;;;;;7.00;4.03;;;;;;;;;;5073962;28;20480;-73
2021/04/26 12:00:09;;;;;;;4.73;4.17;;;;;;;;;;5073872;28;20467;-69
2021/04/26 12:02:38;;;;;;;5.20;4.57;;;;;;;;;;5073695;28;20557;-79
2021/04/26 12:05:05;;;;;;;4.90;4.50;;;;;;;;;;5072631;28;20418;-73
2021/04/26 12:07:32;;;;;;;4.53;3.93;;;;;;;;;;5073927;28;20509;-73
2021/04/26 12:10:01;;;;;;;5.37;4.33;;;;;;;;;;5073597;28;20418;-75
2021/04/26 12:12:29;;;;;;;4.60;4.03;;;;;;;;;;5073635;28;20458;-75
2021/04/26 12:15:03;;;;;;;5.80;4.10;;;;;;;;;;5074137;28;20414;-77
2021/04/26 12:17:30;;;;;;;6.33;3.97;;;;;;;;;;5073509;28;20421;-77
2021/04/26 12:19:56;;;;;;;5.20;3.80;;;;;;;;;;5073908;28;20418;-77
2021/04/26 12:22:23;;;;;;;5.63;4.10;;;;;;;;;;5073551;28;20469;-77
2021/04/26 12:24:50;;;;;;;5.30;3.67;;;;;;;;;;5073367;28;20414;-79
2021/04/26 12:27:17;;;;;;;5.17;4.63;;;;;;;;;;5073728;28;20432;-78
2021/04/26 12:29:44;;;;;;;6.03;3.70;;;;;;;;;;5073634;28;20437;-72
2021/04/26 12:32:19;;;;;;;5.83;3.70;;;;;;;;;;5073284;28;20414;-78
2021/04/26 12:34:53;;;;;;;4.60;4.20;;;;;;;;;;5073354;28;20943;-78
2021/04/26 12:37:20;;;;;;;4.00;3.60;;;;;;;;;;5072978;28;20752;-75
2021/04/26 12:39:46;;;;;;;4.27;3.80;;;;;;;;;;5073571;28;20445;-79
2021/04/26 12:42:22;;;;;;;6.07;4.17;;;;;;;;;;5073394;28;20477;-73
2021/04/26 12:44:49;;;;;;;5.17;4.20;;;;;;;;;;5073557;28;20719;-70
2021/04/26 12:47:18;;;;;;;5.27;4.20;;;;;;;;;;5073077;28;20414;-74
2021/04/26 12:49:45;;;;;;;6.30;3.60;;;;;;;;;;5073134;28;20409;-77
2021/04/26 12:52:18;;;;;;;4.90;4.20;;;;;;;;;;5072932;28;20866;-81
2021/04/26 12:55:00;;;;;;;6.90;4.00;;;;;;;;;;5073481;28;20410;-79
2021/04/26 12:57:26;;;;;;;4.97;3.80;;;;;;;;;;5073013;28;20757;-74
2021/04/26 12:59:52;;;;;;;4.50;3.53;;;;;;;;;;5072986;28;20443;-79
2021/04/26 13:02:22;;;;;;;4.27;3.87;;;;;;;;;;5072917;28;20474;-79
2021/04/26 13:04:49;;;;;;;3.80;3.20;;;;;;;;;;5072895;28;20417;-71
2021/04/26 13:07:15;;;;;;;3.43;3.13;;;;;;;;;;5071082;28;20461;-73
2021/04/26 13:09:41;;;;;;;4.30;3.90;;;;;;;;;;5072965;28;20487;-76
2021/04/26 13:12:08;;;;;;;5.00;4.20;;;;;;;;;;5072813;28;20477;-72
2021/04/26 13:17:37;;;;;;;4.30;3.90;;;;;;;;;;5073521;28;20405;-78
2021/04/26 13:20:20;;;;;;;4.73;3.23;;;;;;;;;;5073358;28;20460;-76
2021/04/26 13:22:46;;;;;;;5.20;3.30;;;;;;;;;;5075093;28;20563;-80
2021/04/26 13:25:12;;;;;;;4.50;3.77;;;;;;;;;;5073424;28;20406;-78
2021/04/26 13:27:42;;;;;;;5.70;3.57;;;;;;;;;;5071260;28;20920;-74
2021/04/26 13:30:09;;;;;;;4.90;4.20;;;;;;;;;;5072380;28;20972;-77
2021/04/26 13:32:35;;;;;;;5.27;3.30;;;;;;;;;;5072219;28;20526;-76
2021/04/26 13:35:01;;;;;;;3.47;3.17;;;;;;;;;;5072228;28;20462;-80
2021/04/26 13:37:27;;;;;;;4.53;3.20;;;;;;;;;;5071524;28;20432;-78
2021/04/26 13:39:53;;;;;;;4.33;3.47;;;;;;;;;;5072230;28;20420;-77
2021/04/26 13:42:19;;;;;;;4.83;3.90;;;;;;;;;;5070889;28;20502;-79
2021/04/26 13:47:48;;;;;;;5.33;3.60;;;;;;;;;;5071939;28;20401;-71
2021/04/26 13:50:14;;;;;;;5.80;3.73;;;;;;;;;;5070770;28;20438;-71
2021/04/26 13:52:40;;;;;;;6.40;3.83;;;;;;;;;;5071723;28;20406;-71
2021/04/26 13:55:07;;;;;;;6.60;3.40;;;;;;;;;;5071904;28;20418;-70
2021/04/26 13:57:33;;;;;;;4.47;3.67;;;;;;;;;;5071821;28;20398;-75
2021/04/26 14:03:02;;;;;;;3.90;3.43;;;;;;;;;;5071601;28;20464;-76
2021/04/26 14:05:28;;;;;;;7.53;3.87;;;;;;;;;;5070881;28;20928;-73
2021/04/26 14:07:54;;;;;;;4.00;3.60;;;;;;;;;;5071822;28;20457;-76
2021/04/26 14:10:21;;;;;;;4.17;3.20;;;;;;;;;;5071759;28;20497;-76
2021/04/26 14:12:47;;;;;;;5.23;3.67;;;;;;;;;;5070921;28;20434;-70
2021/04/26 14:15:13;;;;;;;5.77;3.60;;;;;;;;;;5071896;28;20764;-77
2021/04/26 14:17:40;;;;;;;6.00;3.20;;;;;;;;;;5071559;28;20420;-79
2021/04/26 14:20:06;;;;;;;4.50;4.10;;;;;;;;;;5071744;28;20455;-76
2021/04/26 14:22:32;;;;;;;4.37;3.97;;;;;;;;;;5071117;28;20466;-72
2021/04/26 14:25:01;;;;;;;3.90;3.60;;;;;;;;;;5070994;28;20406;-72
2021/04/26 14:27:27;;;;;;;9.00;4.13;;;;;;;;;;5070285;28;20425;-74
2021/04/26 14:32:57;;;;;;;6.53;4.87;;;;;;;;;;5071221;28;20467;-72
2021/04/26 14:35:23;;;;;;;5.30;4.90;;;;;;;;;;5071245;28;20413;-73
2021/04/26 14:37:49;;;;;;;6.87;3.83;;;;;;;;;;5069952;28;20406;-78
2021/04/26 14:40:15;;;;;;;8.90;4.30;;;;;;;;;;5053311;28;20771;-78
2021/04/26 14:42:41;;;;;;;4.10;3.60;;;;;;;;;;5071209;28;20468;-75
2021/04/26 14:48:11;;;;;;;4.40;3.50;;;;;;;;;;5071652;28;20409;-74
2021/04/26 14:50:37;;;;;;;3.50;3.20;;;;;;;;;;5075157;28;20410;-79
2021/04/26 14:53:03;;;;;;;5.33;3.70;;;;;;;;;;5074158;28;20408;-75
2021/04/26 14:55:29;;;;;;;4.67;3.47;;;;;;;;;;5074774;28;20402;-71
2021/04/26 14:57:55;;;;;;;9.00;4.07;;;;;;;;;;5074606;28;20421;-73
2021/04/26 15:03:25;;;;;;;4.07;3.10;;;;;;;;;;5074662;28;20470;-70
2021/04/26 15:05:51;;;;;;;5.43;3.50;;;;;;;;;;5074693;28;20422;-71
2021/04/26 15:08:17;;;;;;;3.63;3.33;;;;;;;;;;5074411;28;20517;-71
2021/04/26 15:10:43;;;;;;;4.03;3.63;;;;;;;;;;5074567;28;20917;-72
2021/04/26 15:18:58;;;;;;;4.70;3.07;;;;;;;;;;5074497;28;20764;-73
2021/04/26 15:21:25;;;;;;;4.30;3.90;;;;;;;;;;5074181;28;20458;-78
2021/04/26 15:23:51;;;;;;;5.10;3.60;;;;;;;;;;5074048;28;20444;-70
2021/04/26 15:26:17;;;;;;;4.27;3.70;;;;;;;;;;5074169;28;20433;-69
2021/04/26 15:28:44;;;;;;;4.50;3.20;;;;;;;;;;5074273;28;20497;-73
2021/04/26 15:31:10;;;;;;;4.87;3.77;;;;;;;;;;5074228;28;20768;-71
2021/04/26 15:33:36;;;;;;;4.40;3.50;;;;;;;;;;5074296;28;20761;-73
2021/04/26 15:36:02;;;;;;;5.57;3.83;;;;;;;;;;5074173;28;20919;-71
2021/04/26 15:38:28;;;;;;;4.83;3.77;;;;;;;;;;5073869;28;20445;-70
2021/04/26 15:40:55;;;;;;;6.80;3.70;;;;;;;;;;5072580;28;20771;-73
2021/04/26 15:43:22;;;;;;;5.00;3.33;;;;;;;;;;5073840;28;20489;-71
2021/04/26 15:48:51;;;;;;;4.97;3.57;;;;;;;;;;5074423;28;20988;-77
2021/04/26 15:51:18;;;;;;;3.67;3.37;;;;;;;;;;5073947;28;20873;-72
2021/04/26 15:53:44;;;;;;;4.20;3.17;;;;;;;;;;5073701;28;20905;-70
2021/04/26 15:56:10;;;;;;;4.10;3.70;;;;;;;;;;5073860;28;20460;-70
2021/04/26 15:58:36;;;;;;;4.67;4.00;;;;;;;;;;5073500;28;20406;-77
2021/04/26 16:04:07;;;;;;;4.83;3.47;;;;;;;;;;5073499;28;20421;-72
2021/04/26 16:06:33;;;;;;;3.70;3.40;;;;;;;;;;5073422;28;20885;-71
2021/04/26 16:08:59;;;;;;;5.33;3.00;;;;;;;;;;5073263;28;20422;-70
2021/04/26 16:11:25;;;;;;;3.30;3.00;;;;;;;;;;5073309;28;20469;-70
2021/04/26 16:13:53;;;;;;;3.77;3.20;;;;;;;;;;5073283;28;20888;-79
2021/04/26 16:16:19;;;;;;;4.30;3.97;;;;;;;;;;5073467;28;20418;-71
2021/04/26 16:18:45;;;;;;;5.67;3.40;;;;;;;;;;5073291;28;20414;-75
2021/04/26 16:21:11;;;;;;;4.20;3.67;;;;;;;;;;5073064;28;20933;-71
2021/04/26 16:23:37;;;;;;;4.90;3.17;;;;;;;;;;5073012;28;20425;-78
2021/04/26 16:26:03;;;;;;;3.80;3.50;;;;;;;;;;5072919;28;20829;-77
2021/04/26 16:28:29;;;;;;;3.50;3.20;;;;;;;;;;5071478;28;20441;-73
2021/04/26 16:33:59;;;;;;;3.90;3.50;;;;;;;;;;5073276;28;20425;-75
2021/04/26 16:36:25;;;;;;;4.90;3.63;;;;;;;;;;5072401;28;20407;-75
2021/04/26 16:38:54;;;;;;;3.80;3.50;;;;;;;;;;5072876;28;20816;-73
2021/04/26 16:41:21;;;;;;;3.80;3.40;;;;;;;;;;5072697;28;20505;-71
2021/04/26 16:43:46;;;;;;;4.10;3.70;;;;;;;;;;5072287;28;20418;-73
2021/04/26 16:49:17;;;;;;;6.40;5.47;;;;;;;;;;5072019;28;20498;-72